createdAt,value
2024-03-12T00:00:18.176Z,46.46
2024-03-12T00:02:47.342Z,46.51
2024-03-12T00:05:15.721Z,46.84
2024-03-12T00:07:44.288Z,46.11
2024-03-12T00:10:16.581Z,46.31
2024-03-12T00:12:49.292Z,46.46
2024-03-12T00:15:21.393Z,45.96
2024-03-12T00:17:50.583Z,46.39
2024-03-12T00:20:18.794Z,46.71
2024-03-12T00:22:50.339Z,46.03
2024-03-12T00:25:20.505Z,46.32
2024-03-12T00:27:48.207Z,46.44
2024-03-12T00:30:16.587Z,46.43
2024-03-12T00:32:44.739Z,46.50
2024-03-12T00:35:11.899Z,46.15
2024-03-12T00:37:42.533Z,45.86
2024-03-12T00:40:13.755Z,46.24
2024-03-12T00:42:45.208Z,46.17
2024-03-12T00:45:12.994Z,46.18
2024-03-12T00:47:44.218Z,45.70
2024-03-12T00:50:15.574Z,46.26
2024-03-12T00:52:44.570Z,45.92
2024-03-12T00:55:11.813Z,46.07
2024-03-12T00:57:44.144Z,46.11
2024-03-12T01:00:18.324Z,46.16
2024-03-12T01:02:50.622Z,46.05
2024-03-12T01:05:19.082Z,46.59
2024-03-12T01:07:49.182Z,46.37
2024-03-12T01:10:21.834Z,46.40
2024-03-12T01:12:50.403Z,46.04
2024-03-12T01:15:19.677Z,46.50
2024-03-12T01:17:47.554Z,46.71
2024-03-12T01:20:17.914Z,46.80
2024-03-12T01:22:45.386Z,46.36
2024-03-12T01:25:13.313Z,46.64
2024-03-12T01:27:43.339Z,46.86
2024-03-12T01:30:27.892Z,46.79
2024-03-12T01:32:56.617Z,46.84
2024-03-12T01:35:26.196Z,46.60
2024-03-12T01:37:54.547Z,46.59
2024-03-12T01:40:24.247Z,46.55
2024-03-12T01:42:58.544Z,46.49
2024-03-12T01:45:26.741Z,46.96
2024-03-12T01:47:56.787Z,46.64
2024-03-12T01:50:27.864Z,47.16
2024-03-12T01:52:58.536Z,46.87
2024-03-12T01:55:25.509Z,46.40
2024-03-12T01:57:53.855Z,46.26
2024-03-12T02:00:21.617Z,46.56
2024-03-12T02:02:53.832Z,46.81
2024-03-12T02:05:23.987Z,46.80
2024-03-12T02:07:52.575Z,46.77
2024-03-12T02:10:20.536Z,46.78
2024-03-12T02:12:48.467Z,46.62
2024-03-12T02:15:19.624Z,47.26
2024-03-12T02:17:46.921Z,46.74
2024-03-12T02:20:14.646Z,47.03
2024-03-12T02:22:42.030Z,47.03
2024-03-12T02:25:13.148Z,46.89
2024-03-12T02:27:43.799Z,47.02
2024-03-12T02:30:11.692Z,46.83
2024-03-12T02:32:39.963Z,46.95
2024-03-12T02:35:12.741Z,47.08
2024-03-12T02:37:42.796Z,47.30
2024-03-12T02:40:14.760Z,47.33
2024-03-12T02:42:45.832Z,46.98
2024-03-12T02:45:17.944Z,47.26
2024-03-12T02:47:47.234Z,46.93
2024-03-12T02:50:33.853Z,46.77
2024-03-12T02:53:00.914Z,47.14
2024-03-12T02:55:29.047Z,47.30
2024-03-12T02:57:56.132Z,47.57
2024-03-12T03:00:23.219Z,46.87
2024-03-12T03:02:50.557Z,47.57
2024-03-12T03:05:17.532Z,46.94
2024-03-12T03:07:44.696Z,47.49
2024-03-12T03:10:13.291Z,47.01
2024-03-12T03:12:44.219Z,47.53
2024-03-12T03:15:15.008Z,47.24
2024-03-12T03:17:47.240Z,47.35
2024-03-12T03:20:16.446Z,47.39
2024-03-12T03:22:44.328Z,47.75
2024-03-12T03:25:15.815Z,47.66
2024-03-12T03:27:44.665Z,47.23
2024-03-12T03:30:14.512Z,47.26
2024-03-12T03:32:42.077Z,47.82
2024-03-12T03:35:09.369Z,47.30
2024-03-12T03:37:37.200Z,47.71
2024-03-12T03:40:24.071Z,47.63
2024-03-12T03:42:53.372Z,47.54
2024-03-12T03:45:21.014Z,47.67
2024-03-12T03:47:48.184Z,47.30
2024-03-12T03:50:15.464Z,47.29
2024-03-12T03:52:42.785Z,47.33
2024-03-12T03:55:10.703Z,47.45
2024-03-12T03:57:37.840Z,47.35
2024-03-12T04:00:14.024Z,47.33
2024-03-12T04:02:44.711Z,47.82
2024-03-12T04:05:13.512Z,47.59
2024-03-12T04:07:42.429Z,47.44
2024-03-12T04:10:13.507Z,47.41
2024-03-12T04:12:44.026Z,47.71
2024-03-12T04:15:11.367Z,47.22
2024-03-12T04:17:39.145Z,47.52
2024-03-12T04:20:13.098Z,47.55
2024-03-12T04:22:46.944Z,47.80
2024-03-12T04:25:16.856Z,47.47
2024-03-12T04:27:45.663Z,47.33
2024-03-12T04:30:15.007Z,47.81
2024-03-12T04:32:42.338Z,47.26
2024-03-12T04:35:11.351Z,47.11
2024-03-12T04:37:38.604Z,46.64
2024-03-12T04:40:08.406Z,47.24
2024-03-12T04:42:36.950Z,47.45
2024-03-12T04:45:08.821Z,47.25
2024-03-12T04:47:39.102Z,47.04
2024-03-12T04:50:09.541Z,47.42
2024-03-12T04:52:36.928Z,47.02
2024-03-12T04:55:06.459Z,47.14
2024-03-12T04:57:36.102Z,46.61
2024-03-12T05:00:15.262Z,47.25
2024-03-12T05:02:43.145Z,47.14
2024-03-12T05:05:10.207Z,47.07
2024-03-12T05:07:37.283Z,47.39
2024-03-12T05:10:05.934Z,46.76
2024-03-12T05:12:33.020Z,46.63
2024-03-12T05:15:00.005Z,46.33
2024-03-12T05:17:27.183Z,45.74
2024-03-12T05:19:54.490Z,45.70
2024-03-12T05:22:21.708Z,46.09
2024-03-12T05:24:48.930Z,45.96
2024-03-12T05:27:22.870Z,46.02
2024-03-12T05:29:53.952Z,45.47
2024-03-12T05:32:22.687Z,45.17
2024-03-12T05:34:53.817Z,45.29
2024-03-12T05:37:30.287Z,46.27
2024-03-12T05:40:16.314Z,45.79
2024-03-12T05:43:04.449Z,45.41
2024-03-12T05:45:50.200Z,45.48
2024-03-12T05:48:17.263Z,45.05
2024-03-12T05:50:44.320Z,45.18
2024-03-12T05:53:11.967Z,45.82
2024-03-12T05:55:41.560Z,44.83
2024-03-12T05:58:09.739Z,44.74
2024-03-12T06:00:36.888Z,44.98
2024-03-12T06:03:04.557Z,44.19
2024-03-12T06:05:31.834Z,44.68
2024-03-12T06:08:01.214Z,44.56
2024-03-12T06:10:28.372Z,43.50
2024-03-12T06:12:55.504Z,43.55
2024-03-12T06:15:22.464Z,43.28
2024-03-12T06:17:49.567Z,43.19
2024-03-12T06:20:17.174Z,42.25
2024-03-12T06:22:44.961Z,42.61
2024-03-12T06:25:12.224Z,42.20
2024-03-12T06:27:39.937Z,41.94
2024-03-12T06:30:07.925Z,42.25
2024-03-12T06:32:35.278Z,41.65
2024-03-12T06:35:02.271Z,42.45
2024-03-12T06:37:31.345Z,41.55
2024-03-12T06:40:00.172Z,42.60
2024-03-12T06:42:27.753Z,42.56
2024-03-12T06:44:55.669Z,42.01
2024-03-12T06:47:22.643Z,41.75
2024-03-12T06:49:50.200Z,41.52
2024-03-12T06:52:17.711Z,40.98
2024-03-12T06:54:45.645Z,41.46
2024-03-12T06:57:13.013Z,41.25
2024-03-12T06:59:45.073Z,40.61
2024-03-12T07:02:12.931Z,40.46
2024-03-12T07:04:46.022Z,39.91
2024-03-12T07:07:15.003Z,40.64
2024-03-12T07:09:42.736Z,40.48
2024-03-12T07:12:10.083Z,40.07
2024-03-12T07:14:43.006Z,40.64
2024-03-12T07:17:11.541Z,40.17
2024-03-12T07:19:39.373Z,40.02
2024-03-12T07:22:10.343Z,41.04
2024-03-12T07:24:37.971Z,40.62
2024-03-12T07:27:05.470Z,40.03
2024-03-12T07:29:36.218Z,40.49
2024-03-12T07:32:05.190Z,39.50
2024-03-12T07:34:32.781Z,39.13
2024-03-12T07:37:01.723Z,39.05
2024-03-12T07:39:36.162Z,38.68
2024-03-12T07:42:14.842Z,38.22
2024-03-12T07:44:42.924Z,37.26
2024-03-12T07:47:11.574Z,36.83
2024-03-12T07:49:39.015Z,34.57
2024-03-12T07:52:12.820Z,34.14
2024-03-12T07:54:40.359Z,32.34
2024-03-12T07:57:09.131Z,30.65
2024-03-12T07:59:36.101Z,28.11
2024-03-12T08:02:12.932Z,27.28
2024-03-12T08:04:46.318Z,25.32
2024-03-12T08:07:14.731Z,25.40
2024-03-12T08:09:43.720Z,24.93
2024-03-12T08:12:17.602Z,23.67
2024-03-12T08:14:45.972Z,23.92
2024-03-12T08:17:13.825Z,24.69
2024-03-12T08:19:42.198Z,23.29
2024-03-12T08:22:09.921Z,23.18
2024-03-12T08:24:38.659Z,23.38
2024-03-12T08:27:06.921Z,23.36
2024-03-12T08:29:34.741Z,23.88
2024-03-12T08:32:01.884Z,23.07
2024-03-12T08:34:29.317Z,23.69
2024-03-12T08:36:57.355Z,24.24
2024-03-12T08:39:29.450Z,25.17
2024-03-12T08:41:57.073Z,25.98
2024-03-12T08:44:24.985Z,27.12
2024-03-12T08:46:52.380Z,27.21
2024-03-12T08:49:19.532Z,27.82
2024-03-12T08:51:46.767Z,28.40
2024-03-12T08:54:15.445Z,28.27
2024-03-12T08:56:44.274Z,29.00
2024-03-12T08:59:15.338Z,26.20
2024-03-12T09:01:44.999Z,24.09
2024-03-12T09:04:12.790Z,24.21
2024-03-12T09:06:42.274Z,23.85
2024-03-12T09:09:09.724Z,23.69
2024-03-12T09:11:40.030Z,24.70
2024-03-12T09:14:08.269Z,25.44
2024-03-12T09:16:35.777Z,25.86
2024-03-12T09:19:02.804Z,26.21
2024-03-12T09:21:30.051Z,26.56
2024-03-12T09:24:01.926Z,26.36
2024-03-12T09:26:30.562Z,25.20
2024-03-12T09:28:59.179Z,23.70
2024-03-12T09:31:27.052Z,23.76
2024-03-12T09:33:55.474Z,23.38
2024-03-12T09:36:22.569Z,24.05
2024-03-12T09:38:52.057Z,22.75
2024-03-12T09:41:21.948Z,21.07
2024-03-12T09:43:49.994Z,20.10
2024-03-12T09:46:18.274Z,18.94
2024-03-12T09:48:46.960Z,17.93
2024-03-12T09:51:15.252Z,17.99
2024-03-12T09:53:47.989Z,19.48
2024-03-12T09:56:17.544Z,20.67
2024-03-12T09:58:45.935Z,21.55
2024-03-12T10:01:14.020Z,21.92
2024-03-12T10:03:42.327Z,21.33
2024-03-12T10:06:10.664Z,20.72
2024-03-12T10:08:38.049Z,18.83
2024-03-12T10:11:10.180Z,19.04
2024-03-12T10:13:41.774Z,19.92
2024-03-12T10:16:09.741Z,20.11
2024-03-12T10:18:38.915Z,18.91
2024-03-12T10:21:08.515Z,19.27
2024-03-12T10:23:41.477Z,19.15
2024-03-12T10:26:19.593Z,18.86
2024-03-12T10:28:47.313Z,18.64
2024-03-12T10:31:16.230Z,18.80
2024-03-12T10:33:49.965Z,18.82
2024-03-12T10:36:32.527Z,18.29
2024-03-12T10:39:00.143Z,18.40
2024-03-12T10:41:28.183Z,17.98
2024-03-12T10:44:08.813Z,17.34
2024-03-12T10:46:36.987Z,17.81
2024-03-12T10:49:07.514Z,17.09
2024-03-12T10:51:35.035Z,17.11
2024-03-12T10:54:02.719Z,17.62
2024-03-12T10:56:30.914Z,17.61
2024-03-12T10:58:58.589Z,17.19
2024-03-12T11:01:27.207Z,17.28
2024-03-12T11:03:57.868Z,17.72
2024-03-12T11:06:26.860Z,17.59
2024-03-12T11:08:56.093Z,18.47
2024-03-12T11:11:24.593Z,18.74
2024-03-12T11:13:52.512Z,18.82
2024-03-12T11:16:20.831Z,19.77
2024-03-12T11:18:51.416Z,20.38
2024-03-12T11:21:23.702Z,20.78
2024-03-12T11:23:50.885Z,20.90
2024-03-12T11:26:36.298Z,21.43
2024-03-12T11:29:03.899Z,21.74
2024-03-12T11:31:41.147Z,22.61
2024-03-12T11:34:08.457Z,23.36
2024-03-12T11:36:41.837Z,23.93
2024-03-12T11:39:24.317Z,24.95
2024-03-12T11:42:09.648Z,25.38
2024-03-12T11:44:56.673Z,25.78
2024-03-12T11:47:38.213Z,26.87
2024-03-12T11:50:26.162Z,26.65
2024-03-12T11:52:53.429Z,26.95
2024-03-12T11:56:01.060Z,27.92
2024-03-12T11:58:50.613Z,28.68
2024-03-12T12:02:08.409Z,28.46
2024-03-12T12:07:52.694Z,30.05
2024-03-12T12:11:28.885Z,30.20
2024-03-12T12:14:29.133Z,29.61
2024-03-12T12:17:24.330Z,30.21
2024-03-12T12:20:17.663Z,30.78
2024-03-12T12:22:48.922Z,30.72
2024-03-12T12:25:20.323Z,30.55
2024-03-12T12:27:48.153Z,31.06
2024-03-12T12:30:20.732Z,30.57
2024-03-12T12:32:50.569Z,31.64
2024-03-12T12:35:21.002Z,31.82
2024-03-12T12:37:50.531Z,31.39
2024-03-12T12:40:22.965Z,32.83
2024-03-12T12:42:54.651Z,32.31
2024-03-12T12:45:22.320Z,32.15
2024-03-12T12:47:50.368Z,32.29
2024-03-12T12:50:27.847Z,32.86
2024-03-12T12:53:00.634Z,32.55
2024-03-12T12:55:28.975Z,32.20
2024-03-12T12:58:01.363Z,32.69
2024-03-12T13:00:28.998Z,33.60
2024-03-12T13:03:19.193Z,32.92
2024-03-12T13:05:47.866Z,32.95
2024-03-12T13:08:28.401Z,32.86
2024-03-12T13:11:10.653Z,33.32
2024-03-12T13:13:40.097Z,33.30
2024-03-12T13:16:14.746Z,33.29
2024-03-12T13:18:46.705Z,32.98
2024-03-12T13:21:21.613Z,33.06
2024-03-12T13:23:51.169Z,33.55
2024-03-12T13:26:19.849Z,33.73
2024-03-12T13:28:49.656Z,33.25
2024-03-12T13:31:17.115Z,33.73
2024-03-12T13:33:45.349Z,32.88
2024-03-12T13:36:12.864Z,34.17
2024-03-12T13:38:41.249Z,33.36
2024-03-12T13:41:09.359Z,34.15
2024-03-12T13:43:37.514Z,34.37
2024-03-12T13:46:08.357Z,33.93
2024-03-12T13:48:41.210Z,33.64
2024-03-12T13:51:09.314Z,33.51
2024-03-12T13:53:37.708Z,33.55
2024-03-12T13:56:11.386Z,33.74
2024-03-12T13:58:40.979Z,33.35
2024-03-12T14:01:12.960Z,32.94
2024-03-12T14:03:41.737Z,33.54
2024-03-12T14:06:10.746Z,34.13
2024-03-12T14:08:38.233Z,33.70
2024-03-12T14:11:05.371Z,34.37
2024-03-12T14:13:33.247Z,33.86
2024-03-12T14:16:00.652Z,33.91
2024-03-12T14:18:28.369Z,34.23
2024-03-12T14:20:56.397Z,34.71
2024-03-12T14:23:24.101Z,34.43
2024-03-12T14:25:51.194Z,35.12
2024-03-12T14:28:18.341Z,34.71
2024-03-12T14:30:48.419Z,34.32
2024-03-12T14:33:15.687Z,34.81
2024-03-12T14:35:45.459Z,35.00
2024-03-12T14:38:13.324Z,34.23
2024-03-12T14:40:41.032Z,34.18
2024-03-12T14:43:12.219Z,33.87
2024-03-12T14:45:39.642Z,34.60
2024-03-12T14:48:09.222Z,35.03
2024-03-12T14:50:54.742Z,34.85
2024-03-12T14:53:21.880Z,34.79
2024-03-12T14:55:48.946Z,34.74
2024-03-12T14:58:15.985Z,34.79
2024-03-12T15:00:45.242Z,35.43
2024-03-12T15:03:13.971Z,35.26
2024-03-12T15:05:42.826Z,35.15
2024-03-12T15:08:12.919Z,35.56
2024-03-12T15:10:40.174Z,35.79
2024-03-12T15:13:07.654Z,35.55
2024-03-12T15:15:36.629Z,36.02
2024-03-12T15:18:04.165Z,35.38
2024-03-12T15:20:31.834Z,36.20
2024-03-12T15:23:07.149Z,35.94
2024-03-12T15:25:39.407Z,36.80
2024-03-12T15:28:08.773Z,36.73
2024-03-12T15:30:38.336Z,36.75
2024-03-12T15:33:07.736Z,37.57
2024-03-12T15:35:37.682Z,37.26
2024-03-12T15:38:12.561Z,37.75
2024-03-12T15:40:39.582Z,38.23
2024-03-12T15:43:07.142Z,38.43
2024-03-12T15:45:34.460Z,38.81
2024-03-12T15:48:01.689Z,38.81
2024-03-12T15:50:28.977Z,38.61
2024-03-12T15:52:55.962Z,38.91
2024-03-12T15:55:24.326Z,38.51
2024-03-12T15:57:51.458Z,38.63
2024-03-12T16:00:18.870Z,39.19
2024-03-12T16:02:46.123Z,39.17
2024-03-12T16:05:13.618Z,39.36
2024-03-12T16:07:40.910Z,39.52
2024-03-12T16:10:11.116Z,39.68
2024-03-12T16:12:40.732Z,39.96
2024-03-12T16:15:10.845Z,40.04
2024-03-12T16:17:38.270Z,40.11
2024-03-12T16:20:13.839Z,40.12
2024-03-12T16:22:41.954Z,39.96
2024-03-12T16:25:09.673Z,39.74
2024-03-12T16:27:37.241Z,39.58
2024-03-12T16:30:05.385Z,39.92
2024-03-12T16:32:33.930Z,39.90
2024-03-12T16:35:01.127Z,39.49
2024-03-12T16:37:28.680Z,39.63
2024-03-12T16:39:55.948Z,39.38
2024-03-12T16:42:24.986Z,39.75
2024-03-12T16:44:54.859Z,40.02
2024-03-12T16:47:21.950Z,40.12
2024-03-12T16:49:48.885Z,39.81
2024-03-12T16:52:53.117Z,39.99
2024-03-12T16:55:50.190Z,39.72
2024-03-12T16:58:18.164Z,40.14
2024-03-12T17:00:46.246Z,40.28
2024-03-12T17:03:15.996Z,39.77
2024-03-12T17:05:43.519Z,40.02
2024-03-12T17:08:10.819Z,40.23
2024-03-12T17:10:37.952Z,40.11
2024-03-12T17:13:05.865Z,40.40
2024-03-12T17:15:33.710Z,40.17
2024-03-12T17:18:01.213Z,39.89
2024-03-12T17:20:34.771Z,39.98
2024-03-12T17:23:02.543Z,40.20
2024-03-12T17:25:31.665Z,39.95
2024-03-12T17:27:59.111Z,40.37
2024-03-12T17:30:27.860Z,40.10
2024-03-12T17:32:56.492Z,39.95
2024-03-12T17:35:24.140Z,40.05
2024-03-12T17:37:56.862Z,40.18
2024-03-12T17:40:25.601Z,40.17
2024-03-12T17:42:53.428Z,39.81
2024-03-12T17:45:21.600Z,39.87
2024-03-12T17:47:53.992Z,40.03
2024-03-12T17:50:24.064Z,39.94
2024-03-12T17:52:53.469Z,40.05
2024-03-12T17:55:25.682Z,39.95
2024-03-12T17:57:54.141Z,39.95
2024-03-12T18:00:22.414Z,40.32
2024-03-12T18:02:51.122Z,40.05
2024-03-12T18:05:20.893Z,40.16
2024-03-12T18:07:49.729Z,39.87
2024-03-12T18:10:19.411Z,40.00
2024-03-12T18:12:48.476Z,40.43
2024-03-12T18:15:20.021Z,40.90
2024-03-12T18:17:50.860Z,41.27
2024-03-12T18:20:29.141Z,41.73
2024-03-12T18:22:56.783Z,41.23
2024-03-12T18:25:24.310Z,41.07
2024-03-12T18:27:54.744Z,41.25
2024-03-12T18:30:22.075Z,40.81
2024-03-12T18:32:50.483Z,40.55
2024-03-12T18:35:20.077Z,40.86
2024-03-12T18:37:47.537Z,40.43
2024-03-12T18:40:19.337Z,40.86
2024-03-12T18:42:47.898Z,40.77
2024-03-12T18:45:28.647Z,41.32
2024-03-12T18:47:58.799Z,40.81
2024-03-12T18:50:26.416Z,40.46
2024-03-12T18:52:53.721Z,40.65
2024-03-12T18:55:21.507Z,40.42
2024-03-12T18:57:49.354Z,40.34
2024-03-12T19:00:20.036Z,40.55
2024-03-12T19:02:49.822Z,40.73
2024-03-12T19:05:18.817Z,41.12
2024-03-12T19:07:47.319Z,40.78
2024-03-12T19:10:15.739Z,40.63
2024-03-12T19:12:43.557Z,40.85
2024-03-12T19:15:12.897Z,40.86
2024-03-12T19:17:45.789Z,40.82
2024-03-12T19:20:16.435Z,41.28
2024-03-12T19:22:48.996Z,41.50
2024-03-12T19:25:19.523Z,41.54
2024-03-12T19:27:49.742Z,41.38
2024-03-12T19:30:21.648Z,41.37
2024-03-12T19:32:51.718Z,41.87
2024-03-12T19:35:19.668Z,41.44
2024-03-12T19:37:47.138Z,41.45
2024-03-12T19:40:18.244Z,42.05
2024-03-12T19:42:47.847Z,41.50
2024-03-12T19:45:21.048Z,41.59
2024-03-12T19:47:50.052Z,41.94
2024-03-12T19:50:25.959Z,41.64
2024-03-12T19:52:54.772Z,41.83
2024-03-12T19:55:27.310Z,41.57
2024-03-12T19:57:57.747Z,41.87
2024-03-12T20:00:27.326Z,42.27
2024-03-12T20:02:59.129Z,41.97
2024-03-12T20:05:28.508Z,42.30
2024-03-12T20:08:10.276Z,42.29
2024-03-12T20:10:38.328Z,42.61
2024-03-12T20:13:06.600Z,42.07
2024-03-12T20:15:34.295Z,42.46
2024-03-12T20:18:02.698Z,42.07
2024-03-12T20:20:30.151Z,42.34
2024-03-12T20:22:59.232Z,42.68
2024-03-12T20:25:27.678Z,42.50
2024-03-12T20:27:55.536Z,42.58
2024-03-12T20:30:28.857Z,42.35
2024-03-12T20:32:59.719Z,42.64
2024-03-12T20:35:29.141Z,42.69
2024-03-12T20:37:56.999Z,42.68
2024-03-12T20:40:27.081Z,43.18
2024-03-12T20:42:56.271Z,43.01
2024-03-12T20:45:23.748Z,42.86
2024-03-12T20:47:52.663Z,42.45
2024-03-12T20:50:22.745Z,42.55
2024-03-12T20:52:50.262Z,42.64
2024-03-12T20:55:17.621Z,42.71
2024-03-12T20:57:48.445Z,42.76
2024-03-12T21:00:33.348Z,42.68
2024-03-12T21:03:00.635Z,43.28
2024-03-12T21:05:38.925Z,43.06
2024-03-12T21:08:08.397Z,43.25
2024-03-12T21:10:35.680Z,42.95
2024-03-12T21:13:03.039Z,43.30
2024-03-12T21:15:30.942Z,43.12
2024-03-12T21:17:58.056Z,43.23
2024-03-12T21:20:34.578Z,42.89
2024-03-12T21:23:04.731Z,43.39
2024-03-12T21:25:33.398Z,42.95
2024-03-12T21:28:00.542Z,43.30
2024-03-12T21:30:29.165Z,43.12
2024-03-12T21:32:56.874Z,43.07
2024-03-12T21:35:25.279Z,42.68
2024-03-12T21:37:52.868Z,43.08
2024-03-12T21:40:20.736Z,43.30
2024-03-12T21:42:47.926Z,43.04
2024-03-12T21:45:19.083Z,43.18
2024-03-12T21:47:48.645Z,43.12
2024-03-12T21:50:16.883Z,43.29
2024-03-12T21:52:44.340Z,43.50
2024-03-12T21:55:12.420Z,43.27
2024-03-12T21:57:41.774Z,43.65
2024-03-12T22:00:12.935Z,44.03
2024-03-12T22:02:40.657Z,44.13
2024-03-12T22:05:07.694Z,43.96
2024-03-12T22:07:38.417Z,43.55
2024-03-12T22:10:09.543Z,43.37
2024-03-12T22:12:37.033Z,43.42
2024-03-12T22:15:08.245Z,43.36
2024-03-12T22:17:37.445Z,43.33
2024-03-12T22:20:06.775Z,43.04
2024-03-12T22:22:34.189Z,43.39
2024-03-12T22:25:01.427Z,43.33
2024-03-12T22:27:29.694Z,43.60
2024-03-12T22:29:56.900Z,43.59
2024-03-12T22:32:27.313Z,43.36
2024-03-12T22:34:55.985Z,42.97
2024-03-12T22:37:23.807Z,42.97
2024-03-12T22:39:51.260Z,43.05
2024-03-12T22:42:18.863Z,43.26
2024-03-12T22:44:46.299Z,43.19
2024-03-12T22:47:13.678Z,43.41
2024-03-12T22:49:44.586Z,43.51
2024-03-12T22:52:13.046Z,43.50
2024-03-12T22:54:41.586Z,43.84
2024-03-12T22:57:09.664Z,43.95
2024-03-12T22:59:37.141Z,43.56
2024-03-12T23:02:04.684Z,43.80
2024-03-12T23:04:32.209Z,44.03
2024-03-12T23:06:59.488Z,43.81
2024-03-12T23:09:29.659Z,43.83
2024-03-12T23:11:57.635Z,44.15
2024-03-12T23:14:28.081Z,43.66
2024-03-12T23:16:54.996Z,43.98
2024-03-12T23:19:22.255Z,44.05
2024-03-12T23:21:49.301Z,43.85
2024-03-12T23:24:16.592Z,44.44
2024-03-12T23:26:43.867Z,44.25
2024-03-12T23:29:11.576Z,44.37
2024-03-12T23:31:38.841Z,44.42
2024-03-12T23:34:07.170Z,44.12
2024-03-12T23:36:34.693Z,44.14
2024-03-12T23:39:01.926Z,44.43
2024-03-12T23:41:31.328Z,44.21
2024-03-12T23:43:58.432Z,44.28
2024-03-12T23:46:26.091Z,44.52
2024-03-12T23:48:53.636Z,44.92
2024-03-12T23:51:20.578Z,44.30
2024-03-12T23:53:48.787Z,44.64
2024-03-12T23:56:15.855Z,44.25
2024-03-12T23:58:43.543Z,44.25
